Time;durP1;ratioP1;P1;durP2;ratioP2;P2;SDS_P1;SDS_P2;PMS_P1;PMS_P2;Temp;Humidity;BMP_temperature;BMP_pressure;BME280_temperature;BME280_humidity;BME280_pressure;Samples;Min_cycle;Max_cycle;Signal;HPM_P1;HPM_P2
2022/03/30 00:01:11;;;;;;;23.67;10.17;;;;;;;;;;4995104;28;20909;-74
2022/03/30 00:03:37;;;;;;;34.43;11.03;;;;;;;;;;4994351;28;20433;-73
2022/03/30 00:06:06;;;;;;;35.47;11.90;;;;;;;;;;4994875;28;20547;-73
2022/03/30 00:08:32;;;;;;;23.47;10.37;;;;;;;;;;4994519;28;20425;-73
2022/03/30 00:10:59;;;;;;;28.43;11.43;;;11.40;99.90;;;;;;4994673;28;20428;-73
2022/03/30 00:13:25;;;;;;;31.20;11.23;;;;;;;;;;5012437;28;20439;-73
2022/03/30 00:15:51;;;;;;;30.53;11.97;;;;;;;;;;4994940;28;20747;-73
2022/03/30 00:18:17;;;;;;;25.33;10.07;;;;;;;;;;4994668;28;20447;-73
2022/03/30 00:20:43;;;;;;;22.90;8.97;;;;;;;;;;4994505;28;20504;-73
2022/03/30 00:23:09;;;;;;;28.53;10.70;;;;;;;;;;4994423;28;20440;-73
2022/03/30 00:25:35;;;;;;;30.33;11.23;;;;;;;;;;4994263;28;20740;-73
2022/03/30 00:28:02;;;;;;;31.70;11.63;;;;;;;;;;4994077;28;20424;-73
2022/03/30 00:30:28;;;;;;;25.83;9.27;;;;;;;;;;4994346;28;20487;-73
2022/03/30 00:32:54;;;;;;;39.87;11.20;;;;;;;;;;4994269;28;20407;-76
2022/03/30 00:35:20;;;;;;;26.07;10.73;;;;;;;;;;4994630;28;20491;-75
2022/03/30 00:37:46;;;;;;;39.43;11.30;;;;;;;;;;4994017;28;20503;-76
2022/03/30 00:40:15;;;;;;;31.00;12.00;;;10.90;99.90;;;;;;4994309;28;20476;-76
2022/03/30 00:42:41;;;;;;;38.30;11.93;;;;;;;;;;4993607;28;20845;-75
2022/03/30 00:45:18;;;;;;;31.33;12.67;;;10.90;99.90;;;;;;4993829;28;20492;-76
2022/03/30 00:47:45;;;;;;;43.13;12.40;;;;;;;;;;4994032;28;20436;-76
2022/03/30 00:50:17;;;;;;;30.77;12.47;;;10.90;99.90;;;;;;4993674;28;20520;-76
2022/03/30 00:52:43;;;;;;;47.03;12.90;;;10.90;99.90;;;;;;4993697;28;20437;-76
2022/03/30 00:55:10;;;;;;;47.07;13.20;;;;;;;;;;4993875;28;20425;-76
2022/03/30 00:57:37;;;;;;;34.03;12.37;;;10.90;99.90;;;;;;4993761;28;20429;-76
2022/03/30 01:00:08;;;;;;;35.50;11.83;;;10.90;99.90;;;;;;4993613;28;20424;-76
2022/03/30 01:02:37;;;;;;;31.27;12.50;;;10.80;99.90;;;;;;4993951;28;20927;-73
2022/03/30 01:05:03;;;;;;;30.87;11.03;;;;;;;;;;4993519;28;20804;-73
2022/03/30 01:07:29;;;;;;;30.40;12.77;;;;;;;;;;4993645;28;20428;-73
2022/03/30 01:09:55;;;;;;;32.37;12.70;;;;;;;;;;4993633;28;20424;-73
2022/03/30 01:12:22;;;;;;;31.00;11.57;;;;;;;;;;4996126;28;20431;-73
2022/03/30 01:14:48;;;;;;;61.10;13.97;;;;;;;;;;4997892;28;20428;-73
2022/03/30 01:17:14;;;;;;;40.30;12.70;;;;;;;;;;4993797;28;20439;-75
2022/03/30 01:19:40;;;;;;;30.00;12.00;;;;;;;;;;4993562;28;20394;-76
2022/03/30 01:22:09;;;;;;;31.80;12.40;;;;;;;;;;4993548;28;20411;-76
2022/03/30 01:24:35;;;;;;;35.93;12.70;;;;;;;;;;4993305;28;20496;-76
2022/03/30 01:27:01;;;;;;;47.40;12.90;;;;;;;;;;4993457;28;20391;-76
2022/03/30 01:32:29;;;;;;;66.87;16.00;;;;;;;;;;4992209;28;20454;-75
2022/03/30 01:34:59;;;;;;;74.80;16.27;;;10.60;99.90;;;;;;4993055;28;20416;-76
2022/03/30 01:37:28;;;;;;;38.13;13.70;;;10.60;1.00;;;;;;4992555;28;20407;-76
2022/03/30 01:39:55;;;;;;;41.03;13.73;;;;;;;;;;4991669;28;20387;-75
2022/03/30 01:42:21;;;;;;;33.70;12.30;;;;;;;;;;4991163;28;20436;-76
2022/03/30 01:44:47;;;;;;;37.17;13.37;;;;;;;;;;4993238;28;20946;-76
2022/03/30 01:47:13;;;;;;;43.03;14.50;;;;;;;;;;4993451;28;20418;-75
2022/03/30 01:49:40;;;;;;;30.40;12.47;;;;;;;;;;4992441;28;20424;-76
2022/03/30 01:52:07;;;;;;;34.17;13.20;;;;;;;;;;4992726;28;20416;-76
2022/03/30 01:54:35;;;;;;;32.17;13.10;;;;;;;;;;4993359;28;20798;-76
2022/03/30 01:57:01;;;;;;;41.67;13.37;;;;;;;;;;4993105;28;20452;-76
2022/03/30 01:59:28;;;;;;;30.33;13.17;;;;;;;;;;4992706;28;20850;-76
2022/03/30 02:01:54;;;;;;;34.57;13.77;;;;;;;;;;4993933;28;20491;-76
2022/03/30 02:04:20;;;;;;;41.07;14.07;;;;;;;;;;4997282;28;20431;-73
2022/03/30 02:06:46;;;;;;;35.73;14.30;;;;;;;;;;4997104;28;20486;-73
2022/03/30 02:09:13;;;;;;;32.83;13.90;;;;;;;;;;4996930;28;20510;-73
2022/03/30 02:11:39;;;;;;;34.70;13.00;;;;;;;;;;4996674;28;20421;-73
2022/03/30 02:14:06;;;;;;;31.57;12.87;;;;;;;;;;4997934;28;20399;-73
2022/03/30 02:16:32;;;;;;;33.00;13.80;;;;;;;;;;4996729;28;20425;-73
2022/03/30 02:18:58;;;;;;;53.57;14.60;;;;;;;;;;4996931;28;20487;-73
2022/03/30 02:21:24;;;;;;;35.57;14.03;;;;;;;;;;4996696;28;20785;-73
2022/03/30 02:23:51;;;;;;;35.37;13.53;;;;;;;;;;4996813;28;20431;-73
2022/03/30 02:26:17;;;;;;;39.33;14.53;;;;;;;;;;4996438;28;20464;-73
2022/03/30 02:28:44;;;;;;;39.60;13.43;;;;;;;;;;4996878;28;20470;-73
2022/03/30 02:31:10;;;;;;;38.30;14.03;;;;;;;;;;4996040;28;20424;-73
2022/03/30 02:33:36;;;;;;;35.00;13.90;;;;;;;;;;4997000;28;20508;-76
2022/03/30 02:36:03;;;;;;;34.40;14.07;;;;;;;;;;4996647;28;20421;-76
2022/03/30 02:38:29;;;;;;;33.20;13.10;;;;;;;;;;4995940;28;20937;-76
2022/03/30 02:40:55;;;;;;;47.77;15.00;;;;;;;;;;4995309;28;20444;-76
2022/03/30 02:43:21;;;;;;;41.73;14.40;;;;;;;;;;4995873;28;20435;-73
2022/03/30 02:45:47;;;;;;;45.53;15.27;;;10.10;1.00;;;;;;4996034;28;20826;-73
2022/03/30 02:48:19;;;;;;;38.03;13.50;;;;;;;;;;4996566;28;20417;-73
2022/03/30 02:50:49;;;;;;;44.03;14.27;;;;;;;;;;4996333;28;20436;-73
2022/03/30 02:53:16;;;;;;;36.50;14.00;;;;;;;;;;4996025;28;20547;-73
2022/03/30 02:55:42;;;;;;;45.43;13.73;;;;;;;;;;4996108;28;20437;-73
2022/03/30 02:58:09;;;;;;;34.37;13.57;;;;;;;;;;4996251;28;20425;-73
2022/03/30 03:00:35;;;;;;;39.00;14.53;;;;;;;;;;4996031;28;20958;-73
2022/03/30 03:03:02;;;;;;;40.40;15.17;;;;;;;;;;4996042;28;20440;-76
2022/03/30 03:05:32;;;;;;;41.70;15.40;;;;;;;;;;4996015;28;20492;-76
2022/03/30 03:08:01;;;;;;;38.07;15.03;;;10.00;1.00;;;;;;4995930;28;20424;-75
2022/03/30 03:10:28;;;;;;;43.83;15.30;;;9.90;1.00;;;;;;4995804;28;20425;-75
2022/03/30 03:12:54;;;;;;;40.63;14.57;;;;;;;;;;4994655;28;20896;-75
2022/03/30 03:15:20;;;;;;;42.13;15.20;;;;;;;;;;4995488;28;20434;-76
2022/03/30 03:17:46;;;;;;;41.53;15.17;;;;;;;;;;4995391;28;20856;-75
2022/03/30 03:20:12;;;;;;;41.00;15.00;;;;;;;;;;4995949;28;20457;-73
2022/03/30 03:22:38;;;;;;;64.93;15.10;;;;;;;;;;4995146;28;20467;-73
2022/03/30 03:25:05;;;;;;;42.03;13.87;;;;;;;;;;4995939;28;20650;-73
2022/03/30 03:27:31;;;;;;;44.37;15.47;;;;;;;;;;4995319;28;20413;-73
2022/03/30 03:29:57;;;;;;;43.37;14.23;;;;;;;;;;4995468;28;20507;-73
2022/03/30 03:32:23;;;;;;;66.77;16.40;;;;;;;;;;4994249;28;20413;-73
2022/03/30 03:34:49;;;;;;;38.33;15.73;;;;;;;;;;4995615;28;20432;-73
2022/03/30 03:37:15;;;;;;;38.87;14.17;;;;;;;;;;4995371;28;20417;-73
2022/03/30 03:39:42;;;;;;;39.03;14.87;;;9.70;1.00;;;;;;4995562;28;20417;-73
2022/03/30 03:42:09;;;;;;;68.27;18.83;;;;;;;;;;4994551;28;20485;-73
2022/03/30 03:44:35;;;;;;;47.03;14.27;;;;;;;;;;4995148;28;20462;-73
2022/03/30 03:47:01;;;;;;;42.60;16.27;;;;;;;;;;4995365;28;20447;-73
2022/03/30 03:49:27;;;;;;;39.20;15.60;;;;;;;;;;4994837;28;20428;-73
2022/03/30 03:51:53;;;;;;;39.77;13.20;;;;;;;;;;4994918;28;20433;-73
2022/03/30 03:54:19;;;;;;;41.83;15.60;;;;;;;;;;4994613;28;20499;-73
2022/03/30 03:56:45;;;;;;;48.13;16.37;;;;;;;;;;4995219;28;20441;-73
2022/03/30 03:59:11;;;;;;;39.40;15.00;;;9.50;1.00;;;;;;4994699;28;20447;-73
2022/03/30 04:01:37;;;;;;;38.93;15.33;;;9.50;1.00;;;;;;4994307;28;20527;-73
2022/03/30 04:04:03;;;;;;;41.13;15.60;;;;;;;;;;5010360;28;20440;-73
2022/03/30 04:06:30;;;;;;;47.60;14.40;;;;;;;;;;4994890;28;20764;-73
2022/03/30 04:08:56;;;;;;;45.80;16.17;;;;;;;;;;4994853;28;20448;-73
2022/03/30 04:11:22;;;;;;;49.47;16.40;;;;;;;;;;4994262;28;20429;-73
2022/03/30 04:13:49;;;;;;;46.90;15.50;;;;;;;;;;4999716;28;20459;-73
2022/03/30 04:16:16;;;;;;;107.13;22.93;;;;;;;;;;4991650;28;20421;-73
2022/03/30 04:18:42;;;;;;;55.80;16.30;;;;;;;;;;4986101;28;20436;-73
2022/03/30 04:21:08;;;;;;;49.23;16.03;;;;;;;;;;4993281;28;20506;-73
2022/03/30 04:23:34;;;;;;;57.30;15.70;;;;;;;;;;4994503;28;20423;-73
2022/03/30 04:26:00;;;;;;;57.43;16.63;;;;;;;;;;4992146;28;20464;-73
2022/03/30 04:28:26;;;;;;;57.90;17.60;;;;;;;;;;4994036;28;20421;-73
2022/03/30 04:30:53;;;;;;;38.17;14.20;;;;;;;;;;4993685;28;20440;-73
2022/03/30 04:33:19;;;;;;;44.27;15.23;;;;;;;;;;4994068;28;20423;-73
2022/03/30 04:35:45;;;;;;;45.47;15.43;;;;;;;;;;4993783;28;20468;-76
2022/03/30 04:38:11;;;;;;;59.53;16.67;;;;;;;;;;4993665;28;20456;-76
2022/03/30 04:40:37;;;;;;;43.20;16.67;;;;;;;;;;4993476;28;20535;-76
2022/03/30 04:43:03;;;;;;;46.67;16.20;;;;;;;;;;4993539;28;20846;-76
2022/03/30 04:45:29;;;;;;;42.23;15.63;;;;;;;;;;4993631;28;20504;-75
2022/03/30 04:47:55;;;;;;;45.60;15.10;;;;;;;;;;4993742;28;20421;-75
2022/03/30 04:50:22;;;;;;;51.87;14.63;;;9.10;1.00;;;;;;4993680;28;20436;-73
2022/03/30 04:52:48;;;;;;;43.47;16.07;;;;;;;;;;4993739;28;20444;-73
2022/03/30 04:55:14;;;;;;;48.20;15.37;;;;;;;;;;4991397;28;20429;-73
2022/03/30 04:57:41;;;;;;;42.73;15.23;;;;;;;;;;4993778;28;20425;-73
2022/03/30 05:00:09;;;;;;;39.90;15.83;;;;;;;;;;4993480;28;20424;-74
2022/03/30 05:02:35;;;;;;;54.53;16.70;;;;;;;;;;4993120;28;20428;-75
2022/03/30 05:05:01;;;;;;;37.17;13.47;;;;;;;;;;4993786;28;20461;-73
2022/03/30 05:07:27;;;;;;;44.60;14.93;;;;;;;;;;4993015;28;20456;-72
2022/03/30 05:09:53;;;;;;;45.67;16.50;;;;;;;;;;4992664;28;20464;-73
2022/03/30 05:12:19;;;;;;;46.63;15.70;;;;;;;;;;4993957;28;20428;-73
2022/03/30 05:14:45;;;;;;;40.77;15.57;;;;;;;;;;4991002;28;20433;-73
2022/03/30 05:17:11;;;;;;;99.67;19.30;;;;;;;;;;4991034;28;20429;-72
2022/03/30 05:19:37;;;;;;;66.57;18.23;;;;;;;;;;4991440;28;20451;-73
2022/03/30 05:22:06;;;;;;;41.30;15.57;;;8.70;1.00;;;;;;4992876;28;20425;-73
2022/03/30 05:24:32;;;;;;;64.40;18.30;;;;;;;;;;4992701;28;20467;-73
2022/03/30 05:26:58;;;;;;;45.87;16.30;;;;;;;;;;4993490;28;20424;-73
2022/03/30 05:29:24;;;;;;;53.50;16.97;;;;;;;;;;4993257;28;20428;-73
2022/03/30 05:31:50;;;;;;;51.63;17.20;;;;;;;;;;4993365;28;20429;-73
2022/03/30 05:34:16;;;;;;;33.60;12.97;;;;;;;;;;4974163;28;20430;-72
2022/03/30 05:36:43;;;;;;;64.53;21.17;;;;;;;;;;4990095;28;20783;-73
2022/03/30 05:39:09;;;;;;;49.97;20.97;;;;;;;;;;4990361;28;20417;-73
2022/03/30 05:41:35;;;;;;;48.07;19.27;;;;;;;;;;4990330;28;20421;-73
2022/03/30 05:44:02;;;;;;;48.97;20.67;;;;;;;;;;4985968;28;20432;-73
2022/03/30 05:46:28;;;;;;;71.33;19.97;;;;;;;;;;4986773;28;20854;-73
2022/03/30 05:48:54;;;;;;;55.47;17.20;;;;;;;;;;4991799;28;20453;-73
2022/03/30 05:51:20;;;;;;;48.63;17.80;;;;;;;;;;4993508;28;20431;-73
2022/03/30 05:53:47;;;;;;;50.97;15.77;;;;;;;;;;4992834;28;20535;-73
2022/03/30 05:56:13;;;;;;;56.30;18.80;;;;;;;;;;4992922;28;20760;-73
2022/03/30 05:58:39;;;;;;;57.63;19.20;;;;;;;;;;4993053;28;20459;-73
2022/03/30 06:01:06;;;;;;;60.73;19.10;;;;;;;;;;4992694;28;20427;-73
2022/03/30 06:03:37;;;;;;;49.37;17.43;;;;;;;;;;4993054;28;20413;-73
2022/03/30 06:06:04;;;;;;;53.33;19.10;;;;;;;;;;4993003;28;20469;-73
2022/03/30 06:08:29;;;;;;;57.20;19.60;;;;;;;;;;4992964;28;20551;-73
2022/03/30 06:10:55;;;;;;;64.20;18.00;;;;;;;;;;4992736;28;20448;-73
2022/03/30 06:13:21;;;;;;;52.87;16.37;;;;;;;;;;4995579;28;20910;-73
2022/03/30 06:15:49;;;;;;;67.20;19.10;;;;;;;;;;4992607;28;20423;-73
2022/03/30 06:18:15;;;;;;;81.43;22.00;;;;;;;;;;4991816;28;20797;-73
2022/03/30 06:20:41;;;;;;;66.10;19.10;;;;;;;;;;4991121;28;20518;-76
2022/03/30 06:23:07;;;;;;;48.33;18.37;;;;;;;;;;4992776;28;20903;-76
2022/03/30 06:25:34;;;;;;;57.97;20.00;;;;;;;;;;4992718;28;20543;-76
2022/03/30 06:28:00;;;;;;;59.63;19.07;;;;;;;;;;4992875;28;20412;-76
2022/03/30 06:30:26;;;;;;;43.00;16.07;;;;;;;;;;4992827;28;20504;-75
2022/03/30 06:32:52;;;;;;;55.53;19.40;;;;;;;;;;4992910;28;20412;-75
2022/03/30 06:35:19;;;;;;;55.37;18.40;;;;;;;;;;4992865;28;20943;-75
2022/03/30 06:37:46;;;;;;;57.83;18.20;;;;;;;;;;4992730;28;20417;-75
2022/03/30 06:40:12;;;;;;;47.20;16.50;;;;;;;;;;4989215;28;20495;-73
2022/03/30 06:42:39;;;;;;;99.87;22.00;;;;;;;;;;4990719;28;20425;-73
2022/03/30 06:45:07;;;;;;;57.30;19.27;;;;;;;;;;4988935;28;20474;-73
2022/03/30 06:47:33;;;;;;;74.53;21.20;;;;;;;;;;4992227;28;20416;-73
2022/03/30 06:49:59;;;;;;;81.30;22.20;;;;;;;;;;4994269;28;20440;-71
2022/03/30 06:52:26;;;;;;;65.93;19.67;;;;;;;;;;4994876;28;20423;-70
2022/03/30 06:54:52;;;;;;;59.67;18.17;;;;;;;;;;4984919;28;20456;-70
2022/03/30 06:57:20;;;;;;;52.47;18.83;;;;;;;;;;4996043;28;20423;-71
2022/03/30 06:59:46;;;;;;;62.10;19.13;;;;;;;;;;4996072;28;20460;-71
2022/03/30 07:02:12;;;;;;;60.60;21.00;;;;;;;;;;4995498;28;20782;-70
2022/03/30 07:04:38;;;;;;;57.97;21.70;;;;;;;;;;4995866;28;20463;-71
2022/03/30 07:12:34;;;;;;;53.40;18.13;;;;;;;;;;4993779;28;20450;-73
2022/03/30 07:15:01;;;;;;;59.13;19.40;;;;;;;;;;5001970;28;20408;-73
2022/03/30 07:17:27;;;;;;;71.00;21.13;;;;;;;;;;4994908;28;20431;-73
2022/03/30 07:19:53;;;;;;;64.00;19.10;;;;;;;;;;4995180;28;20504;-73
2022/03/30 07:22:19;;;;;;;64.27;19.50;;;;;;;;;;4993009;28;21037;-70
2022/03/30 07:24:45;;;;;;;58.40;17.40;;;;;;;;;;4995671;28;20521;-70
2022/03/30 07:27:11;;;;;;;63.63;20.17;;;;;;;;;;4995691;28;20516;-70
2022/03/30 07:29:37;;;;;;;51.00;17.17;;;;;;;;;;4995612;28;20774;-71
2022/03/30 07:32:03;;;;;;;61.63;18.77;;;;;;;;;;4995256;28;20487;-71
2022/03/30 07:34:30;;;;;;;54.67;18.53;;;;;;;;;;4995517;28;20773;-71
2022/03/30 07:36:56;;;;;;;57.03;19.87;;;;;;;;;;4995703;28;20433;-73
2022/03/30 07:39:22;;;;;;;55.80;20.17;;;;;;;;;;4995274;28;20413;-73
2022/03/30 07:41:48;;;;;;;52.80;19.20;;;;;;;;;;4995277;28;20406;-74
2022/03/30 07:44:14;;;;;;;75.77;21.57;;;;;;;;;;4994943;28;20420;-73
2022/03/30 07:46:40;;;;;;;64.90;20.30;;;;;;;;;;4995027;28;20430;-74
2022/03/30 07:49:06;;;;;;;51.97;21.23;;;;;;;;;;4994958;28;20487;-74
2022/03/30 07:51:32;;;;;;;63.13;21.80;;;;;;;;;;4995629;28;20433;-74
2022/03/30 07:53:58;;;;;;;54.63;20.60;;;;;;;;;;4994662;28;20962;-73
2022/03/30 07:56:25;;;;;;;51.03;19.90;;;;;;;;;;4995026;28;20425;-73
2022/03/30 07:58:53;;;;;;;52.80;20.43;;;;;;;;;;4994963;28;20424;-73
2022/03/30 08:01:20;;;;;;;57.80;18.07;;;;;;;;;;4994822;28;20422;-73
2022/03/30 08:03:46;;;;;;;52.27;18.63;;;;;;;;;;4994508;28;20740;-73
2022/03/30 08:06:12;;;;;;;114.43;24.90;;;;;;;;;;4992366;28;20617;-71
2022/03/30 08:08:39;;;;;;;54.13;19.77;;;;;;;;;;4991796;28;20414;-71
2022/03/30 08:11:05;;;;;;;55.63;19.97;;;;;;;;;;4994756;28;20431;-71
2022/03/30 08:13:31;;;;;;;57.13;20.07;;;;;;;;;;5003715;28;20409;-71
2022/03/30 08:15:57;;;;;;;56.83;21.73;;;;;;;;;;4994611;28;20516;-71
2022/03/30 08:18:23;;;;;;;53.40;18.57;;;;;;;;;;4994509;28;20487;-71
2022/03/30 08:23:36;;;;;;;56.13;20.73;;;;;;;;;;4981702;28;20475;-71
2022/03/30 08:26:02;;;;;;;61.10;20.33;;;;;;;;;;4993838;28;20514;-71
2022/03/30 08:28:28;;;;;;;49.13;18.67;;;;;;;;;;4992968;28;20396;-71
2022/03/30 08:30:54;;;;;;;52.20;18.80;;;;;;;;;;4994377;28;20380;-71
2022/03/30 08:33:23;;;;;;;53.70;18.97;;;;;;;;;;4994438;28;20387;-71
2022/03/30 08:35:50;;;;;;;55.10;19.60;;;;;;;;;;4994826;28;20465;-71
2022/03/30 08:38:16;;;;;;;54.20;19.07;;;;;;;;;;4994420;28;20922;-71
2022/03/30 08:40:42;;;;;;;69.73;21.03;;;;;;;;;;4994113;28;20567;-71
2022/03/30 08:43:08;;;;;;;45.10;18.60;;;;;;;;;;4994019;28;20399;-71
2022/03/30 08:45:34;;;;;;;50.90;18.97;;;;;;;;;;4994058;28;20468;-71
2022/03/30 08:48:01;;;;;;;45.90;18.73;;;;;;;;;;4992654;28;20474;-71
2022/03/30 08:50:27;;;;;;;53.97;18.67;;;;;;;;;;4994466;28;20467;-71
2022/03/30 08:52:55;;;;;;;48.53;20.07;;;10.60;1.00;;;;;;4994402;28;20446;-75
2022/03/30 08:55:22;;;;;;;49.63;18.30;;;;;;;;;;4994053;28;20424;-75
2022/03/30 08:57:49;;;;;;;66.10;20.30;;;;;;;;;;4993784;28;20499;-76
2022/03/30 09:00:19;;;;;;;52.77;19.00;;;10.90;1.00;;;;;;4994456;28;20741;-83
2022/03/30 09:02:55;;;;;;;47.87;19.27;;;;;;;;;;4994056;28;20524;-73
2022/03/30 09:05:23;;;;;;;66.43;19.37;;;;;;;;;;4990257;28;20861;-73
2022/03/30 09:07:50;;;;;;;69.97;18.17;;;;;;;;;;4987722;28;20894;-72
2022/03/30 09:10:19;;;;;;;51.27;18.73;;;11.00;1.00;;;;;;4992586;28;20508;-73
2022/03/30 09:12:46;;;;;;;51.80;20.37;;;;;;;;;;4999445;28;20416;-73
2022/03/30 09:15:12;;;;;;;52.13;18.60;;;;;;;;;;4997514;28;20417;-72
2022/03/30 09:17:41;;;;;;;42.40;17.30;;;;;;;;;;4993809;28;20791;-72
2022/03/30 09:20:12;;;;;;;44.97;18.90;;;11.30;1.00;;;;;;4993597;28;20409;-72
2022/03/30 09:22:43;;;;;;;46.00;19.00;;;11.40;1.00;;;;;;4994140;28;20425;-72
2022/03/30 09:25:09;;;;;;;55.53;18.80;;;;;;;;;;4993439;28;20442;-72
2022/03/30 09:27:39;;;;;;;51.03;18.50;;;;;;;;;;4989836;28;20399;-72
2022/03/30 09:30:06;;;;;;;54.40;18.50;;;;;;;;;;4985046;28;20429;-72
2022/03/30 09:32:32;;;;;;;43.97;17.40;;;;;;;;;;4992517;28;20402;-72
2022/03/30 09:34:59;;;;;;;46.87;19.10;;;;;;;;;;4993289;28;20420;-72
2022/03/30 09:37:25;;;;;;;63.27;19.77;;;;;;;;;;4992240;28;20420;-73
2022/03/30 09:39:51;;;;;;;44.93;18.57;;;;;;;;;;4993680;28;20379;-73
2022/03/30 09:42:18;;;;;;;65.43;19.00;;;;;;;;;;4990293;28;20505;-73
2022/03/30 09:44:54;;;;;;;38.23;16.40;;;10.90;1.00;;;;;;4992762;28;20486;-73
2022/03/30 09:47:21;;;;;;;53.03;18.30;;;;;;;;;;4992934;28;20399;-73
2022/03/30 09:49:47;;;;;;;55.33;18.37;;;;;;;;;;4993260;28;20444;-74
2022/03/30 09:52:21;;;;;;;44.40;18.17;;;;;;;;;;4993585;28;20415;-72
2022/03/30 09:54:57;;;;;;;63.97;19.03;;;11.30;1.00;;;;;;4992433;28;20974;-73
2022/03/30 09:57:25;;;;;;;39.40;17.27;;;;;;;;;;4991155;28;20422;-72
2022/03/30 09:59:55;;;;;;;42.00;18.57;;;;;;;;;;4993190;28;20408;-72
2022/03/30 10:02:21;;;;;;;48.60;17.93;;;;;;;;;;4993156;28;20740;-72
2022/03/30 10:04:48;;;;;;;46.07;17.43;;;;;;;;;;4993151;28;20914;-73
2022/03/30 10:07:14;;;;;;;41.60;17.63;;;12.20;1.00;;;;;;4993432;28;20393;-72
2022/03/30 10:09:42;;;;;;;45.60;17.57;;;;;;;;;;4993234;28;20446;-72
2022/03/30 10:12:08;;;;;;;49.67;18.20;;;;;;;;;;4993734;28;20874;-72
2022/03/30 10:14:36;;;;;;;61.27;18.27;;;;;;;;;;4998646;28;20383;-72
2022/03/30 10:17:02;;;;;;;54.00;18.87;;;;;;;;;;4990084;28;20456;-72
2022/03/30 10:19:28;;;;;;;64.40;20.00;;;;;;;;;;4990045;28;20498;-72
2022/03/30 10:22:04;;;;;;;53.50;18.30;;;;;;;;;;4991375;28;20539;-73
2022/03/30 10:24:33;;;;;;;68.63;19.97;;;;;;;;;;4991167;28;20391;-73
2022/03/30 10:27:10;;;;;;;61.83;18.50;;;;;;;;;;4993620;28;20387;-73
2022/03/30 10:29:36;;;;;;;54.77;19.10;;;;;;;;;;4991698;28;20466;-73
2022/03/30 10:32:12;;;;;;;60.10;17.67;;;;;;;;;;4992278;28;21016;-73
2022/03/30 10:34:42;;;;;;;50.00;17.30;;;;;;;;;;4991613;28;20408;-73
2022/03/30 10:37:11;;;;;;;71.30;19.20;;;;;;;;;;4991698;28;20428;-72
2022/03/30 10:39:58;;;;;;;39.93;16.27;;;;;;;;;;4993214;28;20490;-72
2022/03/30 10:42:24;;;;;;;45.57;17.30;;;;;;;;;;5000196;28;20680;-72
2022/03/30 10:44:51;;;;;;;56.50;19.03;;;;;;;;;;4999500;28;20832;-72
2022/03/30 10:47:25;;;;;;;46.50;16.23;;;13.00;1.00;;;;;;4994850;28;20391;-73
2022/03/30 10:49:55;;;;;;;37.23;15.50;;;12.90;1.00;;;;;;4994275;28;20455;-73
2022/03/30 10:52:32;;;;;;;45.00;16.30;;;12.80;1.00;;;;;;4994331;28;20424;-72
2022/03/30 10:55:13;;;;;;;42.60;17.37;;;;;;;;;;4994184;28;20497;-72
2022/03/30 10:57:52;;;;;;;36.20;15.23;;;;;;;;;;4994148;28;20776;-73
2022/03/30 11:00:20;;;;;;;33.33;14.80;;;;;;;;;;5002153;28;20869;-73
2022/03/30 11:02:49;;;;;;;38.43;15.53;;;12.70;1.00;;;;;;4993907;28;20388;-73
2022/03/30 11:05:17;;;;;;;36.70;14.60;;;12.30;1.00;;;;;;4994014;28;20443;-73
2022/03/30 11:07:43;;;;;;;34.10;14.00;;;;;;;;;;4994122;28;20395;-72
2022/03/30 11:10:45;;;;;;;36.97;15.13;;;12.30;1.00;;;;;;4993764;28;20487;-73
2022/03/30 11:13:11;;;;;;;28.93;14.47;;;12.40;1.00;;;;;;4999992;28;20939;-73
2022/03/30 11:15:56;;;;;;;33.17;14.63;;;;;;;;;;4993865;28;20459;-73
2022/03/30 11:18:22;;;;;;;36.57;14.63;;;;;;;;;;5000012;28;20425;-72
2022/03/30 11:21:11;;;;;;;49.23;15.57;;;12.30;1.00;;;;;;4995532;28;20429;-73
2022/03/30 11:23:37;;;;;;;43.47;15.10;;;;;;;;;;4985816;28;20388;-73
2022/03/30 11:26:03;;;;;;;34.10;12.77;;;;;;;;;;4995768;28;20474;-73
2022/03/30 11:28:38;;;;;;;34.93;14.60;;;12.20;1.00;;;;;;4995792;28;20392;-73
2022/03/30 11:31:17;;;;;;;32.43;14.73;;;12.60;1.00;;;;;;4995793;28;20422;-73
2022/03/30 11:33:43;;;;;;;37.00;15.03;;;;;;;;;;4995371;28;20418;-73
2022/03/30 11:36:09;;;;;;;37.93;14.40;;;;;;;;;;4995685;28;20399;-73
2022/03/30 11:38:40;;;;;;;34.30;13.17;;;13.00;1.00;;;;;;4995826;28;20430;-72
2022/03/30 11:41:10;;;;;;;33.47;12.90;;;;;;;;;;4995540;28;20424;-73
2022/03/30 11:46:28;;;;;;;29.70;12.77;;;13.60;1.00;;;;;;4995481;28;21021;-73
2022/03/30 11:49:05;;;;;;;26.37;11.60;;;13.20;1.00;;;;;;4995018;28;20413;-73
2022/03/30 11:51:32;;;;;;;24.83;11.63;;;;;;;;;;4995850;28;20470;-73
2022/03/30 11:54:17;;;;;;;26.03;11.60;;;;;;;;;;4995537;28;20436;-73
2022/03/30 11:56:43;;;;;;;24.17;10.90;;;;;;;;;;4995325;28;20432;-74
2022/03/30 11:59:10;;;;;;;71.87;15.33;;;;;;;;;;4995273;28;20399;-74
2022/03/30 12:01:36;;;;;;;34.80;11.50;;;;;;;;;;4995186;28;20423;-74
2022/03/30 12:04:03;;;;;;;27.77;10.20;;;;;;;;;;4994242;28;20411;-74
2022/03/30 12:06:29;;;;;;;28.47;10.80;;;;;;;;;;4994995;28;20457;-74
2022/03/30 12:08:58;;;;;;;35.20;10.83;;;;;;;;;;4995254;28;20504;-74
2022/03/30 12:11:25;;;;;;;24.80;10.50;;;;;;;;;;4995045;28;20480;-74
2022/03/30 12:13:51;;;;;;;33.87;11.33;;;;;;;;;;5000899;28;20383;-74
2022/03/30 12:16:17;;;;;;;29.70;11.30;;;;;;;;;;4994909;28;20417;-74
2022/03/30 12:18:47;;;;;;;32.00;9.60;;;;;;;;;;4994704;28;20413;-74
2022/03/30 12:21:14;;;;;;;28.93;11.37;;;;;;;;;;4994729;28;20395;-73
2022/03/30 12:23:50;;;;;;;30.80;11.17;;;;;;;;;;4995084;28;20782;-76
2022/03/30 12:26:16;;;;;;;26.90;10.90;;;;;;;;;;4994131;28;20439;-73
2022/03/30 12:28:42;;;;;;;26.23;10.57;;;;;;;;;;4994711;28;20450;-73
2022/03/30 12:31:10;;;;;;;30.70;10.13;;;;;;;;;;4993953;28;20650;-73
2022/03/30 12:33:47;;;;;;;44.87;11.90;;;12.70;1.00;;;;;;4984410;28;20383;-73
2022/03/30 12:36:14;;;;;;;25.50;11.23;;;;;;;;;;4994395;28;20399;-73
2022/03/30 12:38:40;;;;;;;42.63;13.00;;;;;;;;;;4994193;28;20388;-73
2022/03/30 12:41:07;;;;;;;28.07;11.67;;;;;;;;;;4994167;28;20391;-73
2022/03/30 12:43:33;;;;;;;28.30;11.30;;;;;;;;;;4993912;28;20399;-73
2022/03/30 12:45:59;;;;;;;28.23;10.40;;;;;;;;;;4985604;28;20438;-73
2022/03/30 12:48:27;;;;;;;21.97;9.53;;;;;;;;;;4994036;28;20391;-73
2022/03/30 12:50:53;;;;;;;21.87;10.07;;;;;;;;;;4994560;28;20768;-73
2022/03/30 12:53:20;;;;;;;34.50;11.57;;;;;;;;;;4994334;28;20440;-73
2022/03/30 12:55:51;;;;;;;50.17;12.80;;;;;;;;;;4991508;28;20439;-72
2022/03/30 12:58:24;;;;;;;28.63;10.40;;;;;;;;;;4990816;28;20424;-71
2022/03/30 13:00:52;;;;;;;82.03;14.30;;;;;;;;;;4980752;28;20432;-71
2022/03/30 13:03:22;;;;;;;27.30;11.50;;;;;;;;;;4992245;28;20433;-72
2022/03/30 13:06:07;;;;;;;24.83;10.10;;;13.70;1.00;;;;;;4993269;28;20435;-71
2022/03/30 13:08:34;;;;;;;38.60;12.00;;;13.80;1.00;;;;;;4989999;28;20520;-72
2022/03/30 13:11:02;;;;;;;28.87;10.80;;;;;;;;;;4992958;28;20432;-72
2022/03/30 13:13:34;;;;;;;30.40;10.10;;;13.70;1.00;;;;;;4992429;28;20419;-72
2022/03/30 13:16:07;;;;;;;26.67;10.57;;;13.80;1.00;;;;;;4993362;28;20935;-72
2022/03/30 13:18:34;;;;;;;28.77;11.13;;;;;;;;;;4992358;28;20582;-72
2022/03/30 13:21:06;;;;;;;31.60;11.10;;;14.00;1.00;;;;;;4986030;28;20415;-71
2022/03/30 13:23:40;;;;;;;36.57;12.37;;;;;;;;;;4993581;28;20443;-74
2022/03/30 13:26:25;;;;;;;26.30;11.57;;;;;;;;;;4993004;28;20459;-70
2022/03/30 13:28:51;;;;;;;28.80;11.00;;;;;;;;;;4983401;28;20418;-71
2022/03/30 13:31:18;;;;;;;31.37;11.57;;;;;;;;;;4993392;28;20408;-72
2022/03/30 13:33:45;;;;;;;35.00;11.30;;;13.40;1.00;;;;;;4991489;28;20413;-71
2022/03/30 13:36:11;;;;;;;24.50;10.30;;;;;;;;;;4993273;28;20420;-71
2022/03/30 13:38:37;;;;;;;29.13;10.87;;;;;;;;;;4993324;28;20905;-71
2022/03/30 13:41:04;;;;;;;27.73;9.73;;;;;;;;;;4991235;28;20479;-71
2022/03/30 13:43:30;;;;;;;22.00;9.63;;;;;;;;;;4993064;28;20388;-72
2022/03/30 13:45:56;;;;;;;28.07;9.73;;;;;;;;;;4992656;28;20458;-71
2022/03/30 13:48:22;;;;;;;26.77;9.23;;;;;;;;;;4992769;28;20429;-72
2022/03/30 13:50:48;;;;;;;28.73;10.13;;;;;;;;;;4990824;28;20446;-72
2022/03/30 13:53:14;;;;;;;22.60;9.17;;;13.80;1.00;;;;;;4993258;28;20531;-72
2022/03/30 13:55:41;;;;;;;35.50;9.80;;;;;;;;;;4992981;28;20532;-72
2022/03/30 13:58:07;;;;;;;21.97;9.33;;;;;;;;;;4997453;28;20431;-72
2022/03/30 14:00:34;;;;;;;46.20;11.60;;;;;;;;;;4998808;28;20921;-72
2022/03/30 14:03:00;;;;;;;28.77;9.27;;;;;;;;;;4997586;28;20888;-71
2022/03/30 14:05:27;;;;;;;25.63;10.30;;;14.50;99.90;;;;;;4998733;28;20896;-71
2022/03/30 14:07:53;;;;;;;26.43;8.97;;;14.50;99.90;;;;;;4999131;28;20433;-71
2022/03/30 14:10:21;;;;;;;21.87;8.90;;;;;;;;;;4999589;28;20862;-74
2022/03/30 14:12:47;;;;;;;20.83;8.40;;;;;;;;;;5005694;28;20390;-74
2022/03/30 14:15:13;;;;;;;25.60;8.43;;;;;;;;;;5002498;28;20552;-74
2022/03/30 14:17:39;;;;;;;20.63;8.50;;;;;;;;;;4998455;28;20451;-74